Main page


Airports :

Yazd, Iran

Shahid Sadooghi Airport

latitude: 31-54N, longitude: 054-24E, elevation: 1238 m

Current weather observation

The report was made 1 hour and 0 minutes ago, at 09:00 UTC
Wind 12 kt from the North
Temperature 15°C
Humidity 36%
Pressure 1015 hPa
Visibility 10 km or more
Few clouds at a height of 3000 ft, Cumulonimbus.
Scattered clouds at a height of 3500 ft

METAR: OIYY 180900Z 35012KT 9999 FEW030CB SCT035 15/M00 Q1015

Time: 13:30 (10:00 UTC)

TAF: missing

Weather observations and forecasts of more than 4000 airports (METAR and TAF reports).

The available stations are represented by yellow and red dots on the map.

Hover mouse over dot to see the name of the station.

Then click to see weather observations and forecasts.

To change the map : click on the green buttons with a black cross to zoom in, on the green button with a dash to zoom out, or on the green arrows for adjacent maps.